createdAt,value
2019-01-20T00:00:57.243Z,0
2019-01-20T00:01:57.230Z,0
2019-01-20T00:02:57.210Z,0
2019-01-20T00:03:57.186Z,0
2019-01-20T00:04:57.173Z,0
2019-01-20T00:05:57.150Z,0
2019-01-20T00:06:57.130Z,0
2019-01-20T00:07:57.115Z,0
2019-01-20T00:08:57.092Z,0
2019-01-20T00:09:57.076Z,0
2019-01-20T00:10:57.055Z,0
2019-01-20T00:11:57.038Z,0
2019-01-20T00:12:57.018Z,0
2019-01-20T00:13:56.994Z,0
2019-01-20T00:14:56.981Z,0
2019-01-20T00:15:56.716Z,0
2019-01-20T00:16:56.941Z,0
2019-01-20T00:17:56.920Z,0
2019-01-20T00:18:56.906Z,0
2019-01-20T00:19:56.888Z,0
2019-01-20T00:20:56.871Z,0
2019-01-20T00:21:58.515Z,0
2019-01-20T00:22:56.830Z,0
2019-01-20T00:23:56.807Z,0
2019-01-20T00:24:56.812Z,0
2019-01-20T00:25:56.766Z,0
2019-01-20T00:26:57.003Z,0
2019-01-20T00:27:56.736Z,0
2019-01-20T00:28:56.711Z,0
2019-01-20T00:29:56.689Z,0
2019-01-20T00:30:56.675Z,0
2019-01-20T00:31:56.423Z,0
2019-01-20T00:32:56.639Z,0
2019-01-20T00:33:56.618Z,0
2019-01-20T00:34:56.603Z,0
2019-01-20T00:35:56.584Z,0
2019-01-20T00:36:56.557Z,0
2019-01-20T00:37:56.561Z,0
2019-01-20T00:38:56.524Z,0
2019-01-20T00:39:56.502Z,0
2019-01-20T00:40:56.482Z,0
2019-01-20T00:41:56.462Z,0
2019-01-20T00:42:56.452Z,0
2019-01-20T00:43:56.426Z,0
2019-01-20T00:45:02.522Z,0
2019-01-20T00:45:56.393Z,0
2019-01-20T00:46:56.374Z,0
2019-01-20T00:47:56.350Z,0
2019-01-20T00:48:56.337Z,0
2019-01-20T00:49:56.312Z,0
2019-01-20T00:50:56.294Z,0
2019-01-20T00:51:56.272Z,0
2019-01-20T00:52:56.255Z,0
2019-01-20T00:53:56.243Z,0
2019-01-20T00:54:56.220Z,0
2019-01-20T00:55:56.205Z,0
2019-01-20T00:56:56.178Z,0
2019-01-20T00:57:56.158Z,0
2019-01-20T00:58:56.138Z,0
2019-01-20T00:59:56.126Z,0
2019-01-20T01:00:56.451Z,0
2019-01-20T01:01:56.082Z,0
2019-01-20T01:02:56.081Z,0
2019-01-20T01:03:56.045Z,0
2019-01-20T01:04:56.019Z,0
2019-01-20T01:05:56.003Z,0
2019-01-20T01:06:55.984Z,0
2019-01-20T01:07:55.972Z,0
2019-01-20T01:08:55.945Z,0
2019-01-20T01:09:55.929Z,0
2019-01-20T01:10:55.909Z,0
2019-01-20T01:11:55.896Z,0
2019-01-20T01:12:55.628Z,0
2019-01-20T01:13:55.860Z,0
2019-01-20T01:14:55.870Z,0
2019-01-20T01:15:55.807Z,0
2019-01-20T01:16:55.793Z,0
2019-01-20T01:17:55.776Z,0
2019-01-20T01:18:55.757Z,0
2019-01-20T01:19:55.739Z,0
2019-01-20T01:20:55.717Z,0
2019-01-20T01:21:55.701Z,0
2019-01-20T01:22:55.728Z,0
2019-01-20T01:23:55.662Z,0
2019-01-20T01:24:55.670Z,0
2019-01-20T01:25:55.635Z,0
2019-01-20T01:26:55.601Z,0
2019-01-20T01:27:55.590Z,0
2019-01-20T01:28:55.570Z,0
2019-01-20T01:29:55.561Z,0
2019-01-20T01:30:55.524Z,0
2019-01-20T01:31:55.503Z,0
2019-01-20T01:32:55.492Z,0
2019-01-20T01:33:55.463Z,0
2019-01-20T01:34:55.444Z,0
2019-01-20T01:35:55.430Z,0
2019-01-20T01:36:55.404Z,0
2019-01-20T01:37:55.388Z,0
2019-01-20T01:38:55.369Z,0
2019-01-20T01:39:55.351Z,0
2019-01-20T01:40:55.332Z,0
2019-01-20T01:41:55.312Z,0
2019-01-20T01:42:55.294Z,0
2019-01-20T01:43:55.271Z,0
2019-01-20T01:44:55.253Z,0
2019-01-20T01:45:55.242Z,0
2019-01-20T01:46:55.216Z,0
2019-01-20T01:47:55.200Z,0
2019-01-20T01:48:55.175Z,0
2019-01-20T01:49:55.222Z,0
2019-01-20T01:50:55.141Z,0
2019-01-20T01:51:55.118Z,0
2019-01-20T01:52:55.096Z,0
2019-01-20T01:53:55.078Z,0
2019-01-20T01:54:55.064Z,0
2019-01-20T01:55:54.802Z,0
2019-01-20T01:56:55.021Z,0
2019-01-20T01:57:55.009Z,0
2019-01-20T01:58:54.990Z,0
2019-01-20T01:59:54.965Z,0
2019-01-20T02:00:54.944Z,0
2019-01-20T02:01:54.930Z,0
2019-01-20T02:02:54.907Z,0
2019-01-20T02:03:54.884Z,0
2019-01-20T02:04:54.918Z,0
2019-01-20T02:05:54.858Z,0
2019-01-20T02:06:54.825Z,0
2019-01-20T02:07:54.812Z,0
2019-01-20T02:08:54.792Z,0
2019-01-20T02:09:54.960Z,0
2019-01-20T02:10:54.753Z,0
2019-01-20T02:11:54.735Z,0
2019-01-20T02:12:54.716Z,0
2019-01-20T02:13:54.691Z,0
2019-01-20T02:14:54.682Z,0
2019-01-20T02:15:54.655Z,0
2019-01-20T02:16:54.634Z,0
2019-01-20T02:17:54.613Z,0
2019-01-20T02:18:54.600Z,0
2019-01-20T02:19:54.581Z,0
2019-01-20T02:20:54.601Z,0
2019-01-20T02:21:54.537Z,0
2019-01-20T02:22:54.523Z,0
2019-01-20T02:23:54.500Z,0
2019-01-20T02:24:54.487Z,0
2019-01-20T02:25:54.458Z,0
2019-01-20T02:26:54.441Z,0
2019-01-20T02:27:54.429Z,0
2019-01-20T02:28:54.403Z,0
2019-01-20T02:29:54.383Z,0
2019-01-20T02:30:54.669Z,0
2019-01-20T02:31:54.350Z,0
2019-01-20T02:32:54.355Z,0
2019-01-20T02:33:54.308Z,0
2019-01-20T02:34:54.289Z,0
2019-01-20T02:35:54.277Z,0
2019-01-20T02:36:54.256Z,0
2019-01-20T02:37:54.269Z,0
2019-01-20T02:38:54.221Z,0
2019-01-20T02:39:54.198Z,0
2019-01-20T02:40:54.174Z,0
2019-01-20T02:42:02.080Z,0
2019-01-20T02:42:54.135Z,0
2019-01-20T02:43:53.871Z,0
2019-01-20T02:44:54.103Z,0
2019-01-20T02:45:54.087Z,0
2019-01-20T02:46:54.053Z,0
2019-01-20T02:47:54.036Z,0
2019-01-20T02:48:54.019Z,0
2019-01-20T02:49:54.022Z,0
2019-01-20T02:50:53.973Z,0
2019-01-20T02:51:53.966Z,0
2019-01-20T02:52:53.937Z,0
2019-01-20T02:53:53.683Z,0
2019-01-20T02:54:53.899Z,0
2019-01-20T02:55:53.886Z,0
2019-01-20T02:56:53.619Z,0
2019-01-20T02:57:53.839Z,0
2019-01-20T02:58:53.823Z,0
2019-01-20T02:59:53.822Z,0
2019-01-20T03:00:53.794Z,0
2019-01-20T03:01:53.769Z,0
2019-01-20T03:02:53.745Z,0
2019-01-20T03:03:53.723Z,0
2019-01-20T03:04:53.706Z,0
2019-01-20T03:05:53.681Z,0
2019-01-20T03:06:53.665Z,0
2019-01-20T03:07:53.641Z,0
2019-01-20T03:08:53.630Z,0
2019-01-20T03:09:53.606Z,0
2019-01-20T03:10:53.583Z,0
2019-01-20T03:11:53.568Z,0
2019-01-20T03:12:53.552Z,0
2019-01-20T03:13:53.543Z,0
2019-01-20T03:14:53.527Z,0
2019-01-20T03:15:53.498Z,0
2019-01-20T03:16:53.469Z,0
2019-01-20T03:17:53.450Z,0
2019-01-20T03:18:53.425Z,0
2019-01-20T03:19:53.409Z,0
2019-01-20T03:20:53.444Z,0
2019-01-20T03:21:53.373Z,0
2019-01-20T03:22:53.363Z,0
2019-01-20T03:23:53.331Z,0
2019-01-20T03:24:53.310Z,0
2019-01-20T03:25:53.305Z,0
2019-01-20T03:26:53.275Z,0
2019-01-20T03:27:53.266Z,0
2019-01-20T03:28:53.234Z,0
2019-01-20T03:29:53.216Z,0
2019-01-20T03:30:53.216Z,0
2019-01-20T03:31:53.204Z,0
2019-01-20T03:32:53.252Z,0
2019-01-20T03:33:53.137Z,0
2019-01-20T03:34:53.122Z,0
2019-01-20T03:35:53.093Z,0
2019-01-20T03:36:52.838Z,0
2019-01-20T03:37:53.069Z,0
2019-01-20T03:38:53.037Z,0
2019-01-20T03:39:53.018Z,0
2019-01-20T03:40:52.998Z,0
2019-01-20T03:41:52.981Z,0
2019-01-20T03:42:52.960Z,0
2019-01-20T03:43:52.941Z,0
2019-01-20T03:44:52.920Z,0
2019-01-20T03:45:52.897Z,0
2019-01-20T03:46:53.222Z,0
2019-01-20T03:47:52.868Z,0
2019-01-20T03:48:52.840Z,0
2019-01-20T03:49:52.822Z,0
2019-01-20T03:50:52.812Z,0
2019-01-20T03:51:52.785Z,0
2019-01-20T03:52:52.760Z,0
2019-01-20T03:53:52.746Z,0
2019-01-20T03:54:52.722Z,0
2019-01-20T03:55:52.707Z,0
2019-01-20T03:56:52.693Z,0
2019-01-20T03:57:52.706Z,0
2019-01-20T03:58:52.654Z,0
2019-01-20T03:59:52.624Z,0
2019-01-20T04:00:52.602Z,0
2019-01-20T04:01:52.606Z,0
2019-01-20T04:02:52.572Z,0
2019-01-20T04:03:52.579Z,0
2019-01-20T04:04:52.531Z,0
2019-01-20T04:05:52.514Z,0
2019-01-20T04:06:52.253Z,0
2019-01-20T04:07:53.112Z,0
2019-01-20T04:08:52.458Z,0
2019-01-20T04:09:52.439Z,0
2019-01-20T04:10:52.412Z,0
2019-01-20T04:11:52.397Z,0
2019-01-20T04:12:52.376Z,0
2019-01-20T04:13:52.116Z,0
2019-01-20T04:14:52.338Z,0
2019-01-20T04:15:52.314Z,0
2019-01-20T04:16:52.294Z,0
2019-01-20T04:17:52.276Z,0
2019-01-20T04:18:52.250Z,0
2019-01-20T04:19:52.231Z,0
2019-01-20T04:20:52.213Z,0
2019-01-20T04:21:52.258Z,0
2019-01-20T04:22:52.179Z,0
2019-01-20T04:23:52.615Z,0
2019-01-20T04:24:52.173Z,0
2019-01-20T04:25:52.113Z,0
2019-01-20T04:26:52.092Z,0
2019-01-20T04:27:52.098Z,0
2019-01-20T04:28:52.059Z,0
2019-01-20T04:29:52.045Z,0
2019-01-20T04:30:52.027Z,0
2019-01-20T04:31:51.994Z,0
2019-01-20T04:32:51.977Z,0
2019-01-20T04:33:51.954Z,0
2019-01-20T04:34:51.962Z,0
2019-01-20T04:35:51.913Z,0
2019-01-20T04:36:51.895Z,0
2019-01-20T04:37:51.877Z,0
2019-01-20T04:38:51.854Z,0
2019-01-20T04:39:51.843Z,0
2019-01-20T04:40:51.817Z,0
2019-01-20T04:41:51.805Z,0
2019-01-20T04:42:51.780Z,0
2019-01-20T04:43:51.757Z,0
2019-01-20T04:44:51.743Z,0
2019-01-20T04:45:51.739Z,0
2019-01-20T04:46:51.701Z,0
2019-01-20T04:47:51.689Z,0
2019-01-20T04:48:51.665Z,0
2019-01-20T04:49:51.644Z,0
2019-01-20T04:50:51.616Z,0
2019-01-20T04:51:51.600Z,0
2019-01-20T04:52:51.592Z,0
2019-01-20T04:53:51.570Z,0
2019-01-20T04:54:51.546Z,0
2019-01-20T04:55:51.521Z,0
2019-01-20T04:56:51.503Z,0
2019-01-20T04:57:51.237Z,0
2019-01-20T04:58:51.467Z,0
2019-01-20T04:59:51.436Z,0
2019-01-20T05:00:51.421Z,0
2019-01-20T05:01:51.399Z,0
2019-01-20T05:02:51.380Z,0
2019-01-20T05:03:51.362Z,0
2019-01-20T05:04:51.938Z,0
2019-01-20T05:05:51.347Z,0
2019-01-20T05:06:51.299Z,0
2019-01-20T05:07:51.288Z,0
2019-01-20T05:08:51.274Z,0
2019-01-20T05:09:51.250Z,0
2019-01-20T05:10:51.224Z,0
2019-01-20T05:11:51.217Z,0
2019-01-20T05:12:51.192Z,0
2019-01-20T05:13:51.161Z,0
2019-01-20T05:14:51.143Z,0
2019-01-20T05:15:51.126Z,0
2019-01-20T05:16:51.102Z,0
2019-01-20T05:17:51.157Z,0
2019-01-20T05:18:51.068Z,0
2019-01-20T05:19:51.042Z,0
2019-01-20T05:20:51.021Z,0
2019-01-20T05:21:51.000Z,0
2019-01-20T05:22:51.003Z,0
2019-01-20T05:23:50.967Z,0
2019-01-20T05:24:50.952Z,0
2019-01-20T05:25:50.927Z,0
2019-01-20T05:26:50.899Z,0
2019-01-20T05:27:50.653Z,0
2019-01-20T05:28:50.871Z,0
2019-01-20T05:29:50.851Z,0
2019-01-20T05:30:50.820Z,0
2019-01-20T05:31:50.575Z,0
2019-01-20T05:32:50.792Z,0
2019-01-20T05:33:50.810Z,0
2019-01-20T05:34:50.801Z,0
2019-01-20T05:35:50.724Z,0
2019-01-20T05:36:50.703Z,0
2019-01-20T05:37:50.693Z,0
2019-01-20T05:38:50.667Z,0
2019-01-20T05:39:50.654Z,0
2019-01-20T05:40:50.624Z,0
2019-01-20T05:41:50.628Z,0
2019-01-20T05:42:53.620Z,0
2019-01-20T05:43:50.638Z,0
2019-01-20T05:44:50.546Z,0
2019-01-20T05:45:50.541Z,0
2019-01-20T05:46:50.532Z,0
2019-01-20T05:47:50.524Z,0
2019-01-20T05:48:50.461Z,0
2019-01-20T05:49:50.448Z,0
2019-01-20T05:50:50.188Z,0
2019-01-20T05:51:50.404Z,0
2019-01-20T05:52:50.386Z,0
2019-01-20T05:53:50.363Z,0
2019-01-20T05:54:50.345Z,0
2019-01-20T05:55:50.329Z,0
2019-01-20T05:56:50.317Z,0
2019-01-20T05:57:50.290Z,0
2019-01-20T05:58:50.269Z,0
2019-01-20T05:59:50.246Z,0
2019-01-20T06:00:50.229Z,0
2019-01-20T06:01:50.221Z,0
2019-01-20T06:02:50.192Z,0
2019-01-20T06:03:50.173Z,0
2019-01-20T06:04:50.149Z,0
2019-01-20T06:05:50.135Z,0
2019-01-20T06:06:50.118Z,0
2019-01-20T06:07:50.089Z,0
2019-01-20T06:08:50.069Z,0
2019-01-20T06:09:50.048Z,0
2019-01-20T06:10:50.025Z,0
2019-01-20T06:11:50.010Z,0
2019-01-20T06:12:56.522Z,0
2019-01-20T06:13:49.970Z,0
2019-01-20T06:14:49.950Z,0
2019-01-20T06:15:49.942Z,0
2019-01-20T06:16:49.924Z,0
2019-01-20T06:17:49.919Z,0
2019-01-20T06:18:49.896Z,0
2019-01-20T06:19:49.844Z,0
2019-01-20T06:20:49.826Z,0
2019-01-20T06:21:49.803Z,0
2019-01-20T06:22:49.798Z,0
2019-01-20T06:23:49.764Z,0
2019-01-20T06:24:49.749Z,0
2019-01-20T06:25:49.737Z,4
2019-01-20T06:26:49.704Z,4
2019-01-20T06:27:49.685Z,4
2019-01-20T06:28:49.675Z,0
2019-01-20T06:29:49.404Z,4
2019-01-20T06:30:49.629Z,4
2019-01-20T06:31:49.610Z,4
2019-01-20T06:32:49.586Z,8
2019-01-20T06:33:49.333Z,8
2019-01-20T06:34:49.312Z,8
2019-01-20T06:35:49.532Z,8
2019-01-20T06:36:49.510Z,8
2019-01-20T06:37:49.493Z,12
2019-01-20T06:38:49.468Z,16
2019-01-20T06:39:49.447Z,16
2019-01-20T06:40:49.429Z,20
2019-01-20T06:41:49.409Z,20
2019-01-20T06:42:49.385Z,28
2019-01-20T06:43:49.372Z,32
2019-01-20T06:44:49.347Z,36
2019-01-20T06:45:49.332Z,40
2019-01-20T06:46:49.316Z,48
2019-01-20T06:47:49.289Z,56
2019-01-20T06:48:49.265Z,64
2019-01-20T06:49:49.247Z,72
2019-01-20T06:50:49.228Z,80
2019-01-20T06:51:49.212Z,92
2019-01-20T06:52:49.187Z,104
2019-01-20T06:53:49.166Z,112
2019-01-20T06:54:49.146Z,132
2019-01-20T06:55:49.141Z,144
2019-01-20T06:56:49.111Z,160
2019-01-20T06:57:49.093Z,176
2019-01-20T06:58:49.067Z,196
2019-01-20T06:59:49.047Z,216
2019-01-20T07:00:49.029Z,236
2019-01-20T07:01:49.022Z,256
2019-01-20T07:02:48.990Z,284
2019-01-20T07:03:48.966Z,308
2019-01-20T07:04:48.946Z,332
2019-01-20T07:05:48.928Z,360
2019-01-20T07:06:48.906Z,384
2019-01-20T07:07:48.885Z,412
2019-01-20T07:08:48.869Z,444
2019-01-20T07:09:48.846Z,472
2019-01-20T07:10:48.825Z,504
2019-01-20T07:11:48.811Z,540
2019-01-20T07:12:48.790Z,576
2019-01-20T07:13:48.765Z,612
2019-01-20T07:14:48.747Z,648
2019-01-20T07:15:48.727Z,684
2019-01-20T07:16:48.716Z,724
2019-01-20T07:17:48.688Z,764
2019-01-20T07:18:49.592Z,800
2019-01-20T07:19:48.651Z,840
2019-01-20T07:20:48.386Z,884
2019-01-20T07:21:48.609Z,920
2019-01-20T07:22:48.585Z,964
2019-01-20T07:23:48.564Z,1008
2019-01-20T07:24:48.560Z,1048
2019-01-20T07:25:48.531Z,1096
2019-01-20T07:26:48.517Z,1136
2019-01-20T07:27:48.488Z,1180
2019-01-20T07:28:48.465Z,1224
2019-01-20T07:29:48.456Z,1272
2019-01-20T07:30:48.432Z,1312
2019-01-20T07:31:48.409Z,1356
2019-01-20T07:32:48.387Z,1404
2019-01-20T07:33:48.367Z,1448
2019-01-20T07:34:48.357Z,1488
2019-01-20T07:35:48.328Z,1536
2019-01-20T07:36:48.306Z,1580
2019-01-20T07:37:48.367Z,1620
2019-01-20T07:38:48.274Z,1664
2019-01-20T07:39:48.245Z,1708
2019-01-20T07:40:48.229Z,1756
2019-01-20T07:41:48.207Z,1796
2019-01-20T07:42:48.187Z,1840
2019-01-20T07:43:48.173Z,1876
2019-01-20T07:44:48.482Z,1924
2019-01-20T07:45:48.128Z,1960
2019-01-20T07:46:48.119Z,1992
2019-01-20T07:47:48.094Z,2028
2019-01-20T07:48:48.073Z,2064
2019-01-20T07:49:48.051Z,2100
2019-01-20T07:50:48.032Z,2136
2019-01-20T07:51:48.013Z,2172
2019-01-20T07:52:47.993Z,2208
2019-01-20T07:53:47.977Z,2240
2019-01-20T07:54:47.951Z,2272
2019-01-20T07:55:47.932Z,2308
2019-01-20T07:56:47.922Z,2348
2019-01-20T07:57:47.895Z,2384
2019-01-20T07:58:47.873Z,2416
2019-01-20T07:59:47.856Z,2452
2019-01-20T08:00:47.834Z,2484
2019-01-20T08:01:47.820Z,2524
2019-01-20T08:02:47.799Z,2552
2019-01-20T08:03:47.778Z,2576
2019-01-20T08:04:47.760Z,2600
2019-01-20T08:05:47.740Z,2628
2019-01-20T08:06:47.720Z,2660
2019-01-20T08:07:47.465Z,2692
2019-01-20T08:08:47.679Z,2716
2019-01-20T08:09:47.663Z,2756
2019-01-20T08:10:47.644Z,2784
2019-01-20T08:11:47.954Z,2812
2019-01-20T08:12:47.609Z,2832
2019-01-20T08:13:47.835Z,2856
2019-01-20T08:14:47.562Z,2880
2019-01-20T08:15:47.542Z,2892
2019-01-20T08:16:47.525Z,2916
2019-01-20T08:17:47.512Z,2940
2019-01-20T08:18:47.493Z,2964
2019-01-20T08:19:47.468Z,2996
2019-01-20T08:20:47.445Z,3012
2019-01-20T08:21:47.434Z,3036
2019-01-20T08:22:47.409Z,3052
2019-01-20T08:23:47.392Z,3072
2019-01-20T08:24:47.367Z,3096
2019-01-20T08:25:47.352Z,3112
2019-01-20T08:26:48.078Z,3132
2019-01-20T08:27:47.317Z,3144
2019-01-20T08:28:47.297Z,3164
2019-01-20T08:29:47.273Z,3184
2019-01-20T08:30:47.253Z,3200
2019-01-20T08:31:47.236Z,3212
2019-01-20T08:32:47.215Z,3224
2019-01-20T08:33:46.955Z,3240
2019-01-20T08:34:47.175Z,3260
2019-01-20T08:35:47.153Z,3268
2019-01-20T08:36:47.141Z,3288
2019-01-20T08:37:47.121Z,3304
2019-01-20T08:38:47.100Z,3316
2019-01-20T08:39:47.087Z,3328
2019-01-20T08:40:47.062Z,3340
2019-01-20T08:41:47.036Z,3356
2019-01-20T08:42:47.364Z,3364
2019-01-20T08:43:47.001Z,3380
2019-01-20T08:44:46.980Z,3396
2019-01-20T08:45:46.963Z,3408
2019-01-20T08:46:46.942Z,3420
2019-01-20T08:47:46.931Z,3428
2019-01-20T08:48:46.909Z,3444
2019-01-20T08:49:46.889Z,3456
2019-01-20T08:50:46.897Z,3464
2019-01-20T08:51:46.856Z,3480
2019-01-20T08:52:46.831Z,3488
2019-01-20T08:53:46.816Z,3500
2019-01-20T08:54:46.789Z,3508
2019-01-20T08:55:46.768Z,3520
2019-01-20T08:56:46.755Z,3524
2019-01-20T08:57:46.732Z,3532
2019-01-20T08:58:46.714Z,3536
2019-01-20T08:59:46.695Z,3540
2019-01-20T09:00:47.822Z,3548
2019-01-20T09:01:46.659Z,3548
2019-01-20T09:02:46.681Z,3556
2019-01-20T09:03:46.614Z,3576
2019-01-20T09:04:46.597Z,3588
2019-01-20T09:05:46.591Z,3604
2019-01-20T09:06:46.561Z,3624
2019-01-20T09:07:46.544Z,3640
2019-01-20T09:08:46.523Z,3644
2019-01-20T09:09:46.502Z,3648
2019-01-20T09:10:46.484Z,3648
2019-01-20T09:11:46.468Z,3664
2019-01-20T09:12:46.443Z,3668
2019-01-20T09:13:47.225Z,3668
2019-01-20T09:14:46.427Z,3668
2019-01-20T09:15:46.393Z,3676
2019-01-20T09:16:46.373Z,3696
2019-01-20T09:17:46.365Z,3704
2019-01-20T09:18:46.335Z,3700
2019-01-20T09:19:46.319Z,3704
2019-01-20T09:20:46.297Z,3692
2019-01-20T09:21:46.283Z,3696
2019-01-20T09:22:46.260Z,3716
2019-01-20T09:23:46.246Z,3708
2019-01-20T09:24:46.223Z,3712
2019-01-20T09:25:46.207Z,3704
2019-01-20T09:26:46.189Z,3720
2019-01-20T09:27:45.922Z,3720
2019-01-20T09:28:46.150Z,3724
2019-01-20T09:29:46.128Z,3724
2019-01-20T09:30:46.111Z,3732
2019-01-20T09:31:46.097Z,3724
2019-01-20T09:32:46.072Z,3728
2019-01-20T09:33:46.054Z,3728
2019-01-20T09:34:46.035Z,3728
2019-01-20T09:35:46.022Z,3732
2019-01-20T09:36:46.002Z,3736
2019-01-20T09:37:46.019Z,3748
2019-01-20T09:38:45.960Z,3748
2019-01-20T09:39:45.949Z,3744
2019-01-20T09:40:45.930Z,3736
2019-01-20T09:41:45.907Z,3736
2019-01-20T09:42:45.888Z,3736
2019-01-20T09:43:52.092Z,3724
2019-01-20T09:44:45.853Z,3728
2019-01-20T09:45:45.836Z,3724
2019-01-20T09:46:45.814Z,3732
2019-01-20T09:47:45.801Z,3724
2019-01-20T09:48:45.788Z,3720
2019-01-20T09:49:45.762Z,3728
2019-01-20T09:50:45.800Z,3736
2019-01-20T09:51:45.724Z,3744
2019-01-20T09:52:45.713Z,3748
2019-01-20T09:53:45.690Z,3756
2019-01-20T09:54:45.672Z,3752
2019-01-20T09:55:45.650Z,3756
2019-01-20T09:56:45.634Z,3756
2019-01-20T09:57:45.619Z,3756
2019-01-20T09:58:45.608Z,3756
2019-01-20T09:59:45.586Z,3760
2019-01-20T10:00:45.567Z,3760
2019-01-20T10:01:45.547Z,3756
2019-01-20T10:02:45.528Z,3752
2019-01-20T10:03:45.512Z,3752
2019-01-20T10:04:45.493Z,3756
2019-01-20T10:05:45.476Z,3756
2019-01-20T10:06:45.456Z,3756
2019-01-20T10:07:45.439Z,3752
2019-01-20T10:08:45.425Z,3772
2019-01-20T10:09:45.411Z,3756
2019-01-20T10:10:45.391Z,3760
2019-01-20T10:11:45.368Z,3764
2019-01-20T10:12:45.360Z,3752
2019-01-20T10:13:45.333Z,3760
2019-01-20T10:14:45.313Z,3756
2019-01-20T10:15:45.301Z,3740
2019-01-20T10:16:45.280Z,3736
2019-01-20T10:17:45.264Z,3728
2019-01-20T10:18:45.549Z,3732
2019-01-20T10:19:45.224Z,3732
2019-01-20T10:20:45.211Z,3732
2019-01-20T10:21:45.193Z,3704
2019-01-20T10:22:45.172Z,3696
2019-01-20T10:23:45.159Z,3688
2019-01-20T10:24:45.135Z,3696
2019-01-20T10:25:45.124Z,3692
2019-01-20T10:26:47.264Z,3692
2019-01-20T10:27:45.082Z,3692
2019-01-20T10:28:45.083Z,3700
2019-01-20T10:29:45.052Z,3704
2019-01-20T10:30:45.044Z,3704
2019-01-20T10:31:45.017Z,3712
2019-01-20T10:32:47.954Z,3712
2019-01-20T10:33:44.983Z,3700
2019-01-20T10:34:44.965Z,3696
2019-01-20T10:35:44.952Z,3700
2019-01-20T10:36:44.928Z,3696
2019-01-20T10:37:44.919Z,3680
2019-01-20T10:38:44.895Z,3664
2019-01-20T10:39:44.875Z,3660
2019-01-20T10:40:44.859Z,3656
2019-01-20T10:41:44.845Z,3652
2019-01-20T10:42:44.824Z,3652
2019-01-20T10:43:44.806Z,3652
2019-01-20T10:44:44.792Z,3664
2019-01-20T10:45:44.771Z,3652
2019-01-20T10:46:44.756Z,3644
2019-01-20T10:47:44.736Z,3636
2019-01-20T10:48:44.719Z,3636
2019-01-20T10:49:44.702Z,3636
2019-01-20T10:50:44.691Z,3636
2019-01-20T10:51:44.668Z,3644
2019-01-20T10:52:44.650Z,3648
2019-01-20T10:53:44.658Z,3660
2019-01-20T10:54:44.617Z,3652
2019-01-20T10:55:44.602Z,3648
2019-01-20T10:56:44.584Z,3636
2019-01-20T10:57:44.569Z,3636
2019-01-20T10:58:44.556Z,3620
2019-01-20T10:59:44.530Z,3616
2019-01-20T11:00:44.515Z,3608
2019-01-20T11:01:44.500Z,3600
2019-01-20T11:02:44.481Z,3604
2019-01-20T11:03:44.464Z,3592
2019-01-20T11:04:44.455Z,3584
2019-01-20T11:05:44.435Z,3580
2019-01-20T11:06:44.170Z,3580
2019-01-20T11:07:44.396Z,3576
2019-01-20T11:08:44.389Z,3564
2019-01-20T11:09:44.363Z,3552
2019-01-20T11:10:44.932Z,3548
2019-01-20T11:11:44.329Z,3540
2019-01-20T11:12:45.561Z,3536
2019-01-20T11:13:44.302Z,3528
2019-01-20T11:14:44.287Z,3528
2019-01-20T11:15:44.273Z,3524
2019-01-20T11:16:44.245Z,3528
2019-01-20T11:17:44.287Z,3516
2019-01-20T11:18:44.213Z,3512
2019-01-20T11:19:44.193Z,3512
2019-01-20T11:20:44.192Z,3528
2019-01-20T11:21:44.167Z,3524
2019-01-20T11:22:43.952Z,3520
2019-01-20T11:23:44.131Z,3512
2019-01-20T11:24:44.113Z,3516
2019-01-20T11:25:44.101Z,3512
2019-01-20T11:26:44.077Z,3512
2019-01-20T11:27:44.060Z,3504
2019-01-20T11:28:44.053Z,3504
2019-01-20T11:29:44.030Z,3500
2019-01-20T11:30:44.020Z,3496
2019-01-20T11:31:43.992Z,3492
2019-01-20T11:32:49.474Z,3488
2019-01-20T11:33:43.968Z,3476
2019-01-20T11:34:43.943Z,3472
2019-01-20T11:35:43.928Z,3464
2019-01-20T11:36:43.909Z,3456
2019-01-20T11:37:43.895Z,3452
2019-01-20T11:38:43.884Z,3448
2019-01-20T11:39:43.867Z,3440
2019-01-20T11:40:43.856Z,3436
2019-01-20T11:41:43.831Z,3436
2019-01-20T11:42:43.814Z,3436
2019-01-20T11:43:43.794Z,3436
2019-01-20T11:44:43.789Z,3436
2019-01-20T11:45:43.761Z,3440
2019-01-20T11:46:43.745Z,3444
2019-01-20T11:47:49.036Z,3440
2019-01-20T11:48:43.759Z,3440
2019-01-20T11:49:43.696Z,3444
2019-01-20T11:50:43.684Z,3440
2019-01-20T11:51:43.670Z,3440
2019-01-20T11:52:43.648Z,3436
2019-01-20T11:53:43.675Z,3432
2019-01-20T11:54:43.613Z,3424
2019-01-20T11:55:43.597Z,3420
2019-01-20T11:56:43.585Z,3412
2019-01-20T11:57:43.562Z,3412
2019-01-20T11:58:43.551Z,3404
2019-01-20T11:59:43.590Z,3396
2019-01-20T12:00:43.521Z,3392
2019-01-20T12:01:43.504Z,3392
2019-01-20T12:02:43.486Z,3388
2019-01-20T12:03:43.476Z,3376
2019-01-20T12:04:43.460Z,3372
2019-01-20T12:05:43.436Z,3368
2019-01-20T12:06:43.425Z,3364
2019-01-20T12:07:43.400Z,3360
2019-01-20T12:08:43.386Z,3356
2019-01-20T12:09:43.370Z,3352
2019-01-20T12:10:43.355Z,3352
2019-01-20T12:11:43.338Z,3348
2019-01-20T12:12:43.384Z,3348
2019-01-20T12:13:43.306Z,3348
2019-01-20T12:14:43.298Z,3344
2019-01-20T12:15:43.290Z,3340
2019-01-20T12:16:43.254Z,3332
2019-01-20T12:17:43.246Z,3324
2019-01-20T12:18:43.227Z,3324
2019-01-20T12:19:43.212Z,3320
2019-01-20T12:20:43.198Z,3312
2019-01-20T12:21:43.177Z,3308
2019-01-20T12:22:43.179Z,3296
2019-01-20T12:23:43.153Z,3284
2019-01-20T12:24:43.131Z,3280
2019-01-20T12:25:43.115Z,3280
2019-01-20T12:26:43.098Z,3276
2019-01-20T12:27:43.089Z,3280
2019-01-20T12:28:43.069Z,3280
2019-01-20T12:29:43.052Z,3280
2019-01-20T12:30:43.031Z,3276
2019-01-20T12:31:43.025Z,3264
2019-01-20T12:32:43.004Z,3264
2019-01-20T12:33:42.992Z,3256
2019-01-20T12:34:42.974Z,3252
2019-01-20T12:35:42.963Z,3252
2019-01-20T12:36:42.943Z,3248
2019-01-20T12:37:42.923Z,3248
2019-01-20T12:38:42.905Z,3248
2019-01-20T12:39:42.889Z,3240
2019-01-20T12:40:42.878Z,3232
2019-01-20T12:41:42.870Z,3236
2019-01-20T12:42:42.844Z,3228
2019-01-20T12:43:42.827Z,3228
2019-01-20T12:44:42.816Z,3220
2019-01-20T12:45:42.795Z,3220
2019-01-20T12:46:42.783Z,3220
2019-01-20T12:47:42.772Z,3212
2019-01-20T12:48:42.744Z,3208
2019-01-20T12:49:42.729Z,3200
2019-01-20T12:50:42.716Z,3196
2019-01-20T12:51:42.488Z,3188
2019-01-20T12:52:42.726Z,3180
2019-01-20T12:53:42.675Z,3172
2019-01-20T12:54:42.660Z,3164
2019-01-20T12:55:42.641Z,3160
2019-01-20T12:56:42.622Z,3152
2019-01-20T12:57:42.603Z,3148
2019-01-20T12:58:42.586Z,3140
2019-01-20T12:59:42.571Z,3128
2019-01-20T13:00:42.559Z,3128
2019-01-20T13:01:42.547Z,3124
2019-01-20T13:02:42.526Z,3116
2019-01-20T13:03:42.519Z,3108
2019-01-20T13:04:42.492Z,3104
2019-01-20T13:05:42.475Z,3096
2019-01-20T13:06:42.459Z,3092
2019-01-20T13:07:42.446Z,3088
2019-01-20T13:08:42.433Z,3080
2019-01-20T13:09:42.414Z,3068
2019-01-20T13:10:42.407Z,3056
2019-01-20T13:11:42.140Z,3052
2019-01-20T13:12:42.363Z,3044
2019-01-20T13:13:42.354Z,3036
2019-01-20T13:14:46.341Z,3024
2019-01-20T13:15:42.342Z,3020
2019-01-20T13:16:42.303Z,3008
2019-01-20T13:17:42.292Z,3000
2019-01-20T13:18:42.279Z,2992
2019-01-20T13:19:42.254Z,2980
2019-01-20T13:20:42.239Z,2972
2019-01-20T13:21:42.220Z,2960
2019-01-20T13:22:42.210Z,2956
2019-01-20T13:23:42.188Z,2936
2019-01-20T13:24:42.178Z,2936
2019-01-20T13:25:42.159Z,2924
2019-01-20T13:26:42.143Z,2920
2019-01-20T13:27:42.146Z,2912
2019-01-20T13:28:42.112Z,2908
2019-01-20T13:29:42.136Z,2904
2019-01-20T13:30:42.083Z,2896
2019-01-20T13:31:41.909Z,2900
2019-01-20T13:32:42.047Z,2892
2019-01-20T13:33:42.037Z,2888
2019-01-20T13:34:41.772Z,2884
2019-01-20T13:35:42.001Z,2876
2019-01-20T13:36:42.054Z,2868
2019-01-20T13:37:41.971Z,2856
2019-01-20T13:38:41.951Z,2848
2019-01-20T13:39:41.934Z,2836
2019-01-20T13:40:41.926Z,2828
2019-01-20T13:41:41.900Z,2820
2019-01-20T13:42:41.884Z,2816
2019-01-20T13:43:41.872Z,2804
2019-01-20T13:44:48.529Z,2792
2019-01-20T13:45:41.844Z,2784
2019-01-20T13:46:41.823Z,2776
2019-01-20T13:47:48.435Z,2760
2019-01-20T13:48:41.788Z,2744
2019-01-20T13:49:41.771Z,2724
2019-01-20T13:50:41.758Z,2704
2019-01-20T13:51:41.739Z,2684
2019-01-20T13:52:41.725Z,2668
2019-01-20T13:53:43.088Z,2656
2019-01-20T13:54:41.695Z,2644
2019-01-20T13:55:41.679Z,2640
2019-01-20T13:56:41.657Z,2636
2019-01-20T13:57:41.717Z,2636
2019-01-20T13:58:43.317Z,2636
2019-01-20T13:59:41.608Z,2636
2019-01-20T14:00:41.598Z,2624